createdAt,value
2019-02-06T00:00:26.728Z,8.26
2019-02-06T00:00:53.693Z,8.25
2019-02-06T00:01:24.894Z,8.26
2019-02-06T00:01:56.129Z,8.27
2019-02-06T00:02:27.345Z,8.27
2019-02-06T00:02:58.577Z,8.26
2019-02-06T00:03:30.186Z,8.24
2019-02-06T00:04:01.404Z,8.20
2019-02-06T00:04:32.605Z,8.22
2019-02-06T00:05:13.911Z,8.18
2019-02-06T00:05:36.749Z,8.13
2019-02-06T00:06:07.958Z,8.08
2019-02-06T00:06:39.162Z,8.06
2019-02-06T00:07:10.372Z,8.05
2019-02-06T00:07:41.597Z,8.02
2019-02-06T00:08:12.874Z,8.01
2019-02-06T00:08:44.203Z,7.97
2019-02-06T00:09:15.919Z,7.95
2019-02-06T00:09:47.155Z,7.95
2019-02-06T00:10:18.368Z,7.94
2019-02-06T00:10:49.570Z,7.92
2019-02-06T00:11:20.830Z,7.90
2019-02-06T00:11:52.042Z,7.89
2019-02-06T00:12:23.255Z,7.88
2019-02-06T00:12:54.473Z,7.88
2019-02-06T00:13:25.764Z,7.88
2019-02-06T00:13:57.338Z,7.87
2019-02-06T00:14:28.594Z,7.83
2019-02-06T00:14:59.804Z,7.80
2019-02-06T00:15:31.235Z,7.76
2019-02-06T00:16:02.512Z,7.73
2019-02-06T00:16:33.836Z,7.69
2019-02-06T00:17:05.075Z,7.64
2019-02-06T00:17:36.373Z,7.62
2019-02-06T00:18:07.636Z,7.60
2019-02-06T00:18:38.833Z,7.58
2019-02-06T00:19:10.097Z,7.59
2019-02-06T00:19:41.550Z,7.60
2019-02-06T00:20:12.770Z,7.60
2019-02-06T00:20:44.012Z,7.63
2019-02-06T00:21:15.241Z,7.63
2019-02-06T00:21:46.514Z,7.65
2019-02-06T00:22:17.741Z,7.66
2019-02-06T00:22:48.947Z,7.68
2019-02-06T00:23:20.158Z,7.68
2019-02-06T00:23:51.421Z,7.68
2019-02-06T00:24:23.661Z,7.69
2019-02-06T00:24:54.886Z,7.69
2019-02-06T00:25:26.387Z,7.70
2019-02-06T00:25:57.600Z,7.69
2019-02-06T00:26:28.834Z,7.69
2019-02-06T00:27:00.076Z,7.67
2019-02-06T00:27:31.300Z,7.68
2019-02-06T00:28:02.523Z,7.66
2019-02-06T00:28:33.744Z,7.65
2019-02-06T00:29:04.996Z,7.64
2019-02-06T00:29:36.215Z,7.64
2019-02-06T00:30:07.423Z,7.64
2019-02-06T00:30:38.637Z,7.63
2019-02-06T00:31:10.328Z,7.62
2019-02-06T00:31:41.540Z,7.61
2019-02-06T00:32:12.760Z,7.61
2019-02-06T00:32:44.044Z,7.60
2019-02-06T00:33:15.328Z,7.61
2019-02-06T00:33:46.552Z,7.61
2019-02-06T00:34:17.777Z,7.61
2019-02-06T00:34:49.017Z,7.62
2019-02-06T00:35:25.691Z,7.64
2019-02-06T00:35:53.195Z,7.65
2019-02-06T00:36:24.412Z,7.75
2019-02-06T00:36:55.810Z,7.90
2019-02-06T00:37:27.058Z,8.13
2019-02-06T00:37:58.312Z,8.26
2019-02-06T00:38:29.562Z,8.34
2019-02-06T00:39:00.778Z,8.45
2019-02-06T00:39:31.982Z,8.63
2019-02-06T00:40:03.305Z,8.74
2019-02-06T00:40:34.521Z,8.84
2019-02-06T00:41:05.762Z,8.83
2019-02-06T00:41:36.991Z,8.83
2019-02-06T00:42:08.223Z,8.82
2019-02-06T00:42:39.726Z,8.80
2019-02-06T00:43:10.942Z,8.76
2019-02-06T00:43:42.225Z,8.71
2019-02-06T00:44:13.435Z,8.64
2019-02-06T00:44:44.647Z,8.57
2019-02-06T00:45:15.880Z,8.47
2019-02-06T00:45:47.081Z,8.42
2019-02-06T00:46:18.320Z,8.37
2019-02-06T00:46:49.543Z,8.34
2019-02-06T00:47:20.755Z,8.29
2019-02-06T00:47:51.991Z,8.28
2019-02-06T00:48:23.481Z,8.26
2019-02-06T00:48:54.760Z,8.25
2019-02-06T00:49:25.971Z,8.23
2019-02-06T00:49:57.175Z,8.21
2019-02-06T00:50:28.398Z,8.21
2019-02-06T00:50:59.588Z,8.21
2019-02-06T00:51:30.821Z,8.18
2019-02-06T00:52:02.047Z,8.15
2019-02-06T00:52:33.308Z,8.10
2019-02-06T00:53:04.516Z,8.03
2019-02-06T00:53:35.733Z,7.95
2019-02-06T00:54:07.280Z,7.92
2019-02-06T00:54:38.488Z,7.92
2019-02-06T00:55:09.699Z,7.93
2019-02-06T00:55:40.912Z,7.94
2019-02-06T00:56:12.123Z,7.92
2019-02-06T00:56:43.348Z,7.89
2019-02-06T00:57:14.548Z,7.88
2019-02-06T00:57:45.788Z,7.84
2019-02-06T00:58:17.006Z,7.87
2019-02-06T00:58:48.232Z,7.88
2019-02-06T00:59:19.445Z,7.87
2019-02-06T00:59:50.950Z,7.87
2019-02-06T01:00:22.233Z,7.86
2019-02-06T01:00:53.440Z,7.83
2019-02-06T01:01:24.647Z,7.81
2019-02-06T01:01:55.870Z,7.79
2019-02-06T01:02:27.112Z,7.76
2019-02-06T01:02:58.365Z,7.76
2019-02-06T01:03:29.568Z,7.75
2019-02-06T01:04:00.779Z,7.75
2019-02-06T01:04:32.140Z,7.78
2019-02-06T01:05:03.342Z,7.78
2019-02-06T01:05:38.541Z,7.78
2019-02-06T01:06:07.932Z,7.76
2019-02-06T01:06:39.147Z,7.77
2019-02-06T01:07:10.360Z,7.77
2019-02-06T01:07:41.575Z,7.78
2019-02-06T01:08:12.784Z,7.79
2019-02-06T01:08:43.992Z,7.73
2019-02-06T01:09:15.203Z,7.62
2019-02-06T01:09:46.406Z,7.59
2019-02-06T01:10:17.820Z,7.56
2019-02-06T01:10:49.032Z,7.54
2019-02-06T01:11:20.677Z,7.54
2019-02-06T01:11:51.885Z,7.55
2019-02-06T01:12:23.090Z,7.57
2019-02-06T01:12:54.299Z,7.58
2019-02-06T01:13:25.536Z,7.58
2019-02-06T01:13:56.748Z,7.60
2019-02-06T01:14:30.264Z,7.59
2019-02-06T01:15:03.773Z,7.60
2019-02-06T01:15:34.986Z,7.60
2019-02-06T01:16:06.250Z,7.58
2019-02-06T01:16:37.458Z,7.58
2019-02-06T01:17:09.318Z,7.59
2019-02-06T01:17:40.527Z,7.60
2019-02-06T01:18:11.798Z,7.62
2019-02-06T01:18:43.001Z,7.64
2019-02-06T01:19:14.265Z,7.80
2019-02-06T01:19:45.459Z,7.89
2019-02-06T01:20:16.686Z,7.94
2019-02-06T01:20:47.915Z,8.06
2019-02-06T01:21:19.138Z,8.23
2019-02-06T01:21:51.300Z,8.31
2019-02-06T01:22:22.563Z,8.46
2019-02-06T01:22:54.244Z,8.71
2019-02-06T01:23:25.452Z,8.90
2019-02-06T01:23:56.682Z,9.05
2019-02-06T01:24:27.903Z,9.10
2019-02-06T01:24:59.180Z,9.10
2019-02-06T01:25:30.391Z,9.07
2019-02-06T01:26:01.603Z,9.06
2019-02-06T01:26:32.812Z,9.01
2019-02-06T01:27:04.085Z,9.00
2019-02-06T01:27:35.469Z,9.02
2019-02-06T01:28:06.678Z,9.07
2019-02-06T01:28:37.919Z,9.07
2019-02-06T01:29:09.101Z,9.05
2019-02-06T01:29:40.302Z,9.01
2019-02-06T01:30:11.535Z,8.96
2019-02-06T01:30:42.737Z,8.91
2019-02-06T01:31:14.010Z,8.82
2019-02-06T01:31:45.225Z,8.80
2019-02-06T01:32:16.438Z,8.75
2019-02-06T01:32:47.694Z,8.71
2019-02-06T01:33:19.170Z,8.66
2019-02-06T01:33:50.401Z,8.63
2019-02-06T01:34:21.692Z,8.58
2019-02-06T01:34:52.879Z,8.48
2019-02-06T01:35:24.139Z,8.36
2019-02-06T01:35:55.320Z,8.24
2019-02-06T01:36:26.528Z,8.20
2019-02-06T01:36:57.742Z,8.20
2019-02-06T01:37:28.949Z,8.20
2019-02-06T01:38:00.186Z,8.20
2019-02-06T01:38:31.402Z,8.19
2019-02-06T01:39:02.996Z,8.18
2019-02-06T01:39:34.243Z,8.17
2019-02-06T01:40:05.445Z,8.14
2019-02-06T01:40:36.657Z,8.13
2019-02-06T01:41:07.871Z,8.09
2019-02-06T01:41:39.387Z,8.09
2019-02-06T01:42:10.646Z,8.08
2019-02-06T01:42:41.874Z,8.06
2019-02-06T01:43:13.111Z,8.06
2019-02-06T01:43:44.527Z,8.06
2019-02-06T01:44:15.745Z,8.07
2019-02-06T01:44:47.240Z,8.01
2019-02-06T01:45:18.470Z,8.01
2019-02-06T01:45:49.850Z,7.99
2019-02-06T01:46:21.010Z,7.97
2019-02-06T01:46:52.230Z,7.96
2019-02-06T01:47:23.494Z,7.96
2019-02-06T01:47:54.773Z,7.95
2019-02-06T01:48:25.982Z,7.93
2019-02-06T01:48:57.205Z,7.90
2019-02-06T01:49:28.867Z,7.86
2019-02-06T01:50:00.303Z,7.80
2019-02-06T01:50:31.477Z,7.75
2019-02-06T01:51:02.709Z,7.69
2019-02-06T01:51:33.927Z,7.66
2019-02-06T01:52:05.180Z,7.66
2019-02-06T01:52:36.468Z,7.69
2019-02-06T01:53:07.677Z,7.72
2019-02-06T01:53:38.884Z,7.76
2019-02-06T01:54:10.089Z,7.76
2019-02-06T01:54:41.349Z,7.78
2019-02-06T01:55:13.037Z,7.78
2019-02-06T01:55:44.245Z,7.79
2019-02-06T01:56:15.480Z,7.80
2019-02-06T01:56:46.712Z,7.78
2019-02-06T01:57:17.949Z,7.75
2019-02-06T01:57:49.167Z,7.75
2019-02-06T01:58:20.380Z,7.76
2019-02-06T01:58:51.579Z,7.74
2019-02-06T01:59:22.794Z,7.72
2019-02-06T01:59:54.045Z,7.67
2019-02-06T02:00:25.239Z,7.60
2019-02-06T02:00:56.783Z,7.54
2019-02-06T02:01:27.988Z,7.47
2019-02-06T02:01:59.201Z,7.45
2019-02-06T02:02:30.426Z,7.45
2019-02-06T02:03:01.628Z,7.45
2019-02-06T02:03:32.847Z,7.44
2019-02-06T02:04:04.027Z,7.41
2019-02-06T02:04:35.253Z,7.39
2019-02-06T02:05:06.500Z,7.39
2019-02-06T02:05:38.109Z,7.41
2019-02-06T02:06:09.312Z,7.43
2019-02-06T02:06:40.539Z,7.37
2019-02-06T02:07:11.751Z,7.40
2019-02-06T02:07:42.972Z,7.41
2019-02-06T02:08:14.178Z,7.41
2019-02-06T02:08:45.411Z,7.43
2019-02-06T02:09:16.631Z,7.45
2019-02-06T02:09:47.841Z,7.44
2019-02-06T02:10:19.071Z,7.46
2019-02-06T02:10:50.326Z,7.46
2019-02-06T02:11:21.712Z,7.45
2019-02-06T02:11:52.935Z,7.45
2019-02-06T02:12:24.220Z,7.43
2019-02-06T02:12:55.427Z,7.42
2019-02-06T02:13:26.655Z,7.40
2019-02-06T02:13:57.861Z,7.42
2019-02-06T02:14:29.061Z,7.42
2019-02-06T02:15:00.334Z,7.43
2019-02-06T02:15:31.584Z,7.42
2019-02-06T02:16:02.807Z,7.42
2019-02-06T02:16:34.014Z,7.44
2019-02-06T02:17:05.617Z,7.43
2019-02-06T02:17:36.824Z,7.44
2019-02-06T02:18:08.055Z,7.47
2019-02-06T02:18:39.327Z,7.46
2019-02-06T02:19:10.539Z,7.46
2019-02-06T02:19:41.749Z,7.46
2019-02-06T02:20:12.977Z,7.04
2019-02-06T02:20:44.197Z,7.46
2019-02-06T02:21:15.399Z,7.43
2019-02-06T02:21:46.624Z,7.41
2019-02-06T02:22:17.919Z,7.40
2019-02-06T02:22:49.621Z,7.38
2019-02-06T02:23:20.849Z,7.35
2019-02-06T02:23:52.109Z,7.31
2019-02-06T02:24:23.374Z,7.31
2019-02-06T02:24:54.613Z,7.30
2019-02-06T02:25:25.835Z,7.31
2019-02-06T02:25:57.051Z,7.30
2019-02-06T02:26:28.285Z,7.28
2019-02-06T02:26:59.528Z,7.28
2019-02-06T02:27:30.785Z,7.29
2019-02-06T02:28:01.984Z,7.27
2019-02-06T02:28:33.675Z,7.23
2019-02-06T02:29:04.897Z,7.25
2019-02-06T02:29:36.127Z,7.23
2019-02-06T02:30:07.365Z,7.22
2019-02-06T02:30:38.611Z,7.19
2019-02-06T02:31:09.799Z,7.18
2019-02-06T02:31:41.048Z,7.16
2019-02-06T02:32:12.317Z,7.14
2019-02-06T02:32:43.530Z,7.15
2019-02-06T02:33:14.740Z,7.13
2019-02-06T02:33:46.024Z,7.13
2019-02-06T02:34:17.723Z,7.11
2019-02-06T02:34:49.076Z,7.07
2019-02-06T02:35:20.285Z,7.05
2019-02-06T02:35:51.492Z,7.06
2019-02-06T02:36:22.702Z,7.03
2019-02-06T02:36:53.945Z,6.99
2019-02-06T02:37:26.208Z,6.95
2019-02-06T02:37:57.435Z,6.92
2019-02-06T02:38:28.662Z,6.88
2019-02-06T02:38:59.883Z,6.86
2019-02-06T02:39:31.095Z,6.83
2019-02-06T02:40:02.783Z,6.79
2019-02-06T02:40:33.989Z,6.78
2019-02-06T02:41:05.212Z,6.80
2019-02-06T02:41:36.455Z,6.83
2019-02-06T02:42:07.661Z,6.82
2019-02-06T02:42:38.934Z,6.83
2019-02-06T02:43:10.147Z,6.86
2019-02-06T02:43:41.357Z,6.91
2019-02-06T02:44:13.003Z,6.97
2019-02-06T02:44:44.206Z,6.98
2019-02-06T02:45:15.424Z,6.98
2019-02-06T02:45:47.172Z,7.01
2019-02-06T02:46:18.392Z,7.01
2019-02-06T02:46:49.595Z,6.99
2019-02-06T02:47:20.854Z,6.97
2019-02-06T02:47:52.074Z,6.93
2019-02-06T02:48:23.274Z,6.92
2019-02-06T02:48:54.512Z,6.91
2019-02-06T02:49:25.711Z,6.91
2019-02-06T02:49:56.962Z,6.90
2019-02-06T02:50:28.470Z,6.87
2019-02-06T02:50:59.666Z,6.85
2019-02-06T02:51:30.979Z,6.83
2019-02-06T02:52:02.176Z,6.83
2019-02-06T02:52:33.407Z,6.82
2019-02-06T02:53:04.617Z,6.80
2019-02-06T02:53:35.828Z,6.80
2019-02-06T02:54:07.051Z,6.80
2019-02-06T02:54:38.278Z,6.79
2019-02-06T02:55:09.508Z,6.79
2019-02-06T02:55:40.724Z,6.72
2019-02-06T02:56:12.262Z,6.70
2019-02-06T02:56:43.480Z,6.70
2019-02-06T02:57:14.725Z,6.70
2019-02-06T02:57:45.931Z,6.67
2019-02-06T02:58:17.133Z,6.65
2019-02-06T02:58:48.361Z,6.64
2019-02-06T02:59:19.645Z,6.63
2019-02-06T02:59:50.851Z,6.63
2019-02-06T03:00:22.064Z,6.62
2019-02-06T03:00:53.280Z,6.59
2019-02-06T03:01:24.507Z,6.58
2019-02-06T03:01:56.126Z,6.57
2019-02-06T03:02:27.350Z,6.57
2019-02-06T03:02:58.582Z,6.56
2019-02-06T03:03:29.797Z,6.55
2019-02-06T03:04:01.021Z,6.56
2019-02-06T03:04:32.245Z,6.54
2019-02-06T03:05:03.476Z,6.54
2019-02-06T03:05:35.078Z,6.54
2019-02-06T03:06:06.296Z,6.53
2019-02-06T03:06:37.500Z,6.53
2019-02-06T03:07:08.746Z,6.53
2019-02-06T03:07:40.220Z,6.54
2019-02-06T03:08:11.432Z,6.52
2019-02-06T03:08:42.645Z,6.52
2019-02-06T03:09:13.843Z,6.48
2019-02-06T03:09:45.055Z,6.48
2019-02-06T03:10:16.280Z,6.49
2019-02-06T03:10:47.538Z,6.44
2019-02-06T03:11:18.746Z,6.42
2019-02-06T03:11:50.001Z,6.39
2019-02-06T03:12:21.268Z,6.39
2019-02-06T03:12:52.508Z,6.40
2019-02-06T03:13:24.294Z,6.43
2019-02-06T03:13:55.518Z,6.44
2019-02-06T03:14:26.776Z,6.44
2019-02-06T03:14:57.986Z,6.40
2019-02-06T03:15:29.202Z,6.39
2019-02-06T03:16:00.422Z,6.40
2019-02-06T03:16:31.636Z,6.40
2019-02-06T03:17:03.466Z,6.39
2019-02-06T03:17:34.844Z,6.39
2019-02-06T03:18:06.072Z,6.38
2019-02-06T03:18:37.321Z,6.36
2019-02-06T03:19:08.948Z,6.31
2019-02-06T03:19:40.207Z,6.25
2019-02-06T03:20:11.491Z,6.31
2019-02-06T03:20:42.739Z,6.38
2019-02-06T03:21:13.960Z,6.51
2019-02-06T03:21:45.195Z,6.53
2019-02-06T03:22:16.423Z,6.46
2019-02-06T03:22:47.653Z,6.47
2019-02-06T03:23:18.854Z,6.40
2019-02-06T03:23:50.307Z,6.34
2019-02-06T03:24:21.559Z,6.33
2019-02-06T03:24:53.174Z,6.28
2019-02-06T03:25:24.377Z,6.21
2019-02-06T03:25:55.597Z,6.18
2019-02-06T03:26:26.801Z,6.18
2019-02-06T03:26:58.008Z,6.16
2019-02-06T03:27:29.228Z,6.16
2019-02-06T03:28:00.456Z,6.18
2019-02-06T03:28:31.732Z,6.18
2019-02-06T03:29:02.955Z,6.16
2019-02-06T03:29:34.466Z,6.14
2019-02-06T03:30:05.689Z,6.13
2019-02-06T03:30:37.049Z,6.15
2019-02-06T03:31:08.267Z,6.17
2019-02-06T03:31:39.471Z,6.18
2019-02-06T03:32:10.704Z,6.21
2019-02-06T03:32:41.909Z,6.21
2019-02-06T03:33:13.198Z,6.21
2019-02-06T03:33:44.403Z,6.23
2019-02-06T03:34:15.612Z,6.24
2019-02-06T03:34:46.887Z,6.29
2019-02-06T03:35:18.375Z,6.33
2019-02-06T03:35:49.609Z,6.36
2019-02-06T03:36:20.828Z,6.40
2019-02-06T03:36:52.032Z,6.42
2019-02-06T03:37:23.253Z,6.44
2019-02-06T03:37:54.462Z,6.44
2019-02-06T03:38:25.673Z,6.47
2019-02-06T03:38:56.901Z,6.48
2019-02-06T03:39:28.148Z,6.51
2019-02-06T03:39:59.421Z,6.53
2019-02-06T03:40:30.649Z,6.55
2019-02-06T03:41:02.143Z,6.54
2019-02-06T03:41:33.372Z,6.52
2019-02-06T03:42:04.581Z,6.53
2019-02-06T03:42:35.814Z,6.54
2019-02-06T03:43:07.036Z,6.53
2019-02-06T03:43:38.293Z,6.54
2019-02-06T03:44:09.503Z,6.52
2019-02-06T03:44:40.738Z,6.53
2019-02-06T03:45:12.050Z,6.55
2019-02-06T03:45:43.306Z,6.58
2019-02-06T03:46:14.530Z,6.60
2019-02-06T03:46:46.137Z,6.62
2019-02-06T03:47:17.349Z,6.64
2019-02-06T03:47:48.608Z,6.66
2019-02-06T03:48:19.804Z,6.68
2019-02-06T03:48:51.026Z,6.70
2019-02-06T03:49:22.262Z,6.73
2019-02-06T03:49:53.494Z,6.73
2019-02-06T03:50:24.757Z,6.75
2019-02-06T03:50:55.979Z,6.80
2019-02-06T03:51:27.370Z,6.84
2019-02-06T03:51:58.590Z,6.91
2019-02-06T03:52:29.792Z,6.96
2019-02-06T03:53:01.183Z,7.02
2019-02-06T03:53:32.433Z,7.08
2019-02-06T03:54:03.669Z,7.11
2019-02-06T03:54:34.901Z,7.15
2019-02-06T03:55:06.158Z,7.17
2019-02-06T03:55:37.417Z,7.19
2019-02-06T03:56:08.666Z,7.20
2019-02-06T03:56:39.878Z,7.20
2019-02-06T03:57:11.163Z,7.17
2019-02-06T03:57:42.363Z,7.16
2019-02-06T03:58:13.636Z,7.17
2019-02-06T03:58:44.908Z,7.15
2019-02-06T03:59:16.119Z,7.13
2019-02-06T03:59:47.338Z,7.10
2019-02-06T04:00:18.562Z,7.06
2019-02-06T04:00:49.785Z,7.02
2019-02-06T04:01:20.980Z,7.00
2019-02-06T04:01:52.265Z,6.99
2019-02-06T04:02:23.477Z,6.95
2019-02-06T04:02:55.060Z,6.95
2019-02-06T04:03:26.306Z,6.95
2019-02-06T04:03:57.514Z,6.93
2019-02-06T04:04:28.750Z,6.92
2019-02-06T04:04:59.974Z,6.92
2019-02-06T04:05:31.206Z,6.94
2019-02-06T04:06:02.409Z,6.93
2019-02-06T04:06:33.622Z,6.93
2019-02-06T04:07:04.958Z,6.92
2019-02-06T04:07:36.198Z,6.90
2019-02-06T04:08:07.421Z,6.90
2019-02-06T04:08:39.122Z,6.89
2019-02-06T04:09:10.330Z,6.89
2019-02-06T04:09:41.569Z,6.88
2019-02-06T04:10:12.789Z,6.86
2019-02-06T04:10:44.025Z,6.88
2019-02-06T04:11:15.238Z,6.89
2019-02-06T04:11:46.508Z,6.89
2019-02-06T04:12:17.753Z,6.89
2019-02-06T04:12:48.978Z,6.87
2019-02-06T04:13:20.420Z,6.87
2019-02-06T04:13:51.609Z,6.85
2019-02-06T04:14:23.227Z,6.84
2019-02-06T04:14:54.441Z,6.82
2019-02-06T04:15:25.709Z,6.81
2019-02-06T04:15:56.981Z,6.81
2019-02-06T04:16:28.201Z,6.82
2019-02-06T04:16:59.425Z,6.83
2019-02-06T04:17:30.635Z,6.86
2019-02-06T04:18:01.844Z,6.86
2019-02-06T04:18:33.083Z,6.88
2019-02-06T04:19:04.494Z,6.88
2019-02-06T04:19:35.727Z,6.88
2019-02-06T04:20:08.677Z,6.88
2019-02-06T04:20:39.880Z,6.87
2019-02-06T04:21:11.089Z,6.87
2019-02-06T04:21:42.292Z,6.86
2019-02-06T04:22:14.205Z,6.85
2019-02-06T04:22:45.496Z,6.85
2019-02-06T04:23:16.698Z,6.84
2019-02-06T04:23:47.903Z,6.84
2019-02-06T04:24:19.106Z,6.86
2019-02-06T04:24:51.698Z,6.89
2019-02-06T04:25:23.091Z,6.92
2019-02-06T04:25:54.592Z,7.01
2019-02-06T04:26:25.805Z,7.04
2019-02-06T04:26:57.062Z,7.13
2019-02-06T04:27:28.345Z,7.18
2019-02-06T04:27:59.574Z,7.18
2019-02-06T04:28:30.781Z,7.18
2019-02-06T04:29:01.995Z,7.15
2019-02-06T04:29:33.201Z,7.13
2019-02-06T04:30:04.434Z,7.11
2019-02-06T04:30:35.685Z,7.08
2019-02-06T04:31:06.895Z,7.06
2019-02-06T04:31:38.501Z,7.06
2019-02-06T04:32:09.738Z,7.04
2019-02-06T04:32:40.994Z,7.04
2019-02-06T04:33:12.208Z,7.03
2019-02-06T04:33:43.417Z,7.01
2019-02-06T04:34:14.673Z,6.99
2019-02-06T04:34:45.920Z,6.96
2019-02-06T04:35:17.136Z,6.94
2019-02-06T04:35:48.360Z,6.94
2019-02-06T04:36:19.560Z,6.91
2019-02-06T04:36:50.765Z,6.90
2019-02-06T04:37:22.350Z,6.86
2019-02-06T04:37:53.564Z,6.82
2019-02-06T04:38:24.772Z,6.73
2019-02-06T04:38:55.996Z,6.67
2019-02-06T04:39:27.251Z,6.68
2019-02-06T04:39:58.459Z,6.69
2019-02-06T04:40:29.671Z,6.68
2019-02-06T04:41:00.894Z,6.68
2019-02-06T04:41:32.110Z,6.67
2019-02-06T04:42:03.511Z,6.64
2019-02-06T04:42:34.728Z,6.61
2019-02-06T04:43:06.247Z,6.59
2019-02-06T04:43:37.428Z,6.17
2019-02-06T04:44:08.657Z,6.62
2019-02-06T04:44:39.985Z,6.64
2019-02-06T04:45:11.174Z,6.64
2019-02-06T04:45:42.453Z,6.67
2019-02-06T04:46:13.724Z,6.69
2019-02-06T04:46:44.928Z,6.69
2019-02-06T04:47:16.222Z,6.68
2019-02-06T04:47:47.715Z,6.68
2019-02-06T04:48:18.924Z,6.66
2019-02-06T04:48:50.122Z,6.66
2019-02-06T04:49:21.328Z,6.67
2019-02-06T04:49:52.541Z,6.69
2019-02-06T04:50:23.739Z,6.73
2019-02-06T04:50:55.006Z,6.76
2019-02-06T04:51:26.233Z,6.82
2019-02-06T04:51:57.425Z,6.88
2019-02-06T04:52:28.624Z,6.94
2019-02-06T04:52:59.853Z,6.96
2019-02-06T04:53:31.530Z,7.00
2019-02-06T04:54:02.922Z,7.02
2019-02-06T04:54:34.121Z,7.08
2019-02-06T04:55:05.346Z,7.13
2019-02-06T04:55:36.556Z,7.20
2019-02-06T04:56:07.790Z,7.29
2019-02-06T04:56:38.998Z,7.39
2019-02-06T04:57:10.215Z,7.47
2019-02-06T04:57:41.449Z,7.53
2019-02-06T04:58:12.675Z,7.60
2019-02-06T04:58:43.908Z,7.63
2019-02-06T04:59:15.497Z,7.67
2019-02-06T04:59:46.704Z,7.72
2019-02-06T05:00:17.910Z,7.77
2019-02-06T05:00:49.134Z,7.81
2019-02-06T05:01:20.395Z,7.81
2019-02-06T05:01:51.617Z,7.81
2019-02-06T05:02:22.811Z,7.80
2019-02-06T05:02:54.015Z,7.79
2019-02-06T05:03:25.779Z,7.79
2019-02-06T05:03:57.323Z,7.77
2019-02-06T05:04:28.579Z,7.74
2019-02-06T05:05:00.275Z,7.74
2019-02-06T05:05:31.459Z,7.74
2019-02-06T05:06:02.656Z,7.71
2019-02-06T05:06:33.865Z,7.68
2019-02-06T05:07:05.075Z,7.67
2019-02-06T05:07:36.295Z,7.66
2019-02-06T05:08:07.586Z,7.62
2019-02-06T05:08:38.806Z,7.60
2019-02-06T05:09:10.038Z,7.56
2019-02-06T05:09:41.394Z,7.54
2019-02-06T05:10:12.608Z,7.55
2019-02-06T05:10:43.852Z,7.54
2019-02-06T05:11:15.070Z,7.55
2019-02-06T05:11:46.351Z,7.52
2019-02-06T05:12:17.572Z,7.51
2019-02-06T05:12:48.783Z,7.50
2019-02-06T05:13:20.047Z,7.49
2019-02-06T05:13:51.286Z,7.45
2019-02-06T05:14:22.505Z,7.44
2019-02-06T05:14:53.719Z,7.43
2019-02-06T05:15:25.113Z,7.44
2019-02-06T05:15:56.327Z,7.43
2019-02-06T05:16:27.538Z,7.43
2019-02-06T05:16:58.805Z,7.43
2019-02-06T05:17:30.385Z,7.40
2019-02-06T05:18:01.595Z,7.40
2019-02-06T05:18:32.792Z,7.38
2019-02-06T05:19:04.010Z,7.38
2019-02-06T05:19:35.228Z,6.55
2019-02-06T05:20:06.455Z,7.32
2019-02-06T05:20:37.678Z,7.33
2019-02-06T05:21:10.122Z,7.31
2019-02-06T05:21:41.306Z,7.31
2019-02-06T05:22:12.537Z,7.29
2019-02-06T05:22:43.786Z,7.29
2019-02-06T05:23:15.010Z,7.28
2019-02-06T05:23:46.237Z,7.25
2019-02-06T05:24:17.448Z,7.24
2019-02-06T05:24:48.654Z,7.22
2019-02-06T05:25:19.873Z,7.22
2019-02-06T05:25:51.195Z,7.22
2019-02-06T05:26:22.413Z,7.21
2019-02-06T05:26:54.004Z,7.19
2019-02-06T05:27:25.258Z,7.16
2019-02-06T05:27:56.467Z,7.13
2019-02-06T05:28:27.692Z,7.13
2019-02-06T05:28:58.961Z,7.11
2019-02-06T05:29:30.179Z,7.08
2019-02-06T05:30:01.392Z,7.04
2019-02-06T05:30:32.647Z,7.02
2019-02-06T05:31:03.854Z,7.00
2019-02-06T05:31:35.358Z,7.00
2019-02-06T05:32:06.564Z,6.99
2019-02-06T05:32:42.791Z,6.93
2019-02-06T05:33:10.704Z,6.87
2019-02-06T05:33:41.989Z,6.84
2019-02-06T05:34:13.198Z,6.84
2019-02-06T05:34:44.415Z,6.82
2019-02-06T05:35:15.680Z,6.90
2019-02-06T05:35:46.895Z,6.96
2019-02-06T05:36:18.127Z,6.97
2019-02-06T05:36:50.990Z,6.98
2019-02-06T05:37:31.663Z,6.98
2019-02-06T05:37:55.720Z,6.95
2019-02-06T05:38:27.410Z,6.95
2019-02-06T05:38:58.612Z,6.93
2019-02-06T05:39:29.829Z,6.93
2019-02-06T05:40:01.031Z,6.93
2019-02-06T05:40:32.288Z,6.91
2019-02-06T05:41:03.515Z,6.91
2019-02-06T05:41:34.750Z,6.89
2019-02-06T05:42:05.956Z,6.90
2019-02-06T05:42:37.167Z,6.91
2019-02-06T05:43:08.648Z,6.91
2019-02-06T05:43:39.867Z,6.91
2019-02-06T05:44:11.080Z,6.93
2019-02-06T05:44:42.299Z,6.93
2019-02-06T05:45:13.509Z,6.96
2019-02-06T05:45:44.773Z,6.97
2019-02-06T05:46:15.986Z,6.97
2019-02-06T05:46:47.192Z,6.99
2019-02-06T05:47:18.418Z,7.00
2019-02-06T05:47:49.620Z,6.98
2019-02-06T05:48:20.823Z,7.00
2019-02-06T05:48:52.527Z,7.03
2019-02-06T05:49:23.749Z,7.04
2019-02-06T05:49:55.027Z,7.10
2019-02-06T05:50:26.221Z,7.10
2019-02-06T05:50:57.428Z,7.12
2019-02-06T05:51:28.637Z,7.14
2019-02-06T05:51:59.910Z,7.13
2019-02-06T05:52:31.106Z,7.12
2019-02-06T05:53:02.357Z,7.12
2019-02-06T05:53:33.579Z,7.13
2019-02-06T05:54:04.792Z,7.11
2019-02-06T05:54:36.388Z,7.12
2019-02-06T05:55:07.622Z,7.09
2019-02-06T05:55:38.811Z,7.08
2019-02-06T05:56:10.027Z,7.03
2019-02-06T05:56:41.249Z,7.00
2019-02-06T05:57:12.497Z,6.98
2019-02-06T05:57:43.810Z,6.99
2019-02-06T05:58:15.061Z,7.00
2019-02-06T05:58:46.267Z,7.00
2019-02-06T05:59:17.651Z,6.99
2019-02-06T05:59:48.878Z,7.00
2019-02-06T06:00:20.161Z,7.00
2019-02-06T06:00:51.415Z,7.01
2019-02-06T06:01:22.630Z,7.00
2019-02-06T06:01:53.857Z,7.01
2019-02-06T06:02:25.064Z,7.01
2019-02-06T06:02:56.284Z,6.99
2019-02-06T06:03:27.491Z,6.94
2019-02-06T06:03:58.707Z,6.95
2019-02-06T06:04:29.905Z,6.97
2019-02-06T06:05:01.392Z,6.97
2019-02-06T06:05:32.647Z,7.00
2019-02-06T06:06:03.863Z,7.03
2019-02-06T06:06:35.077Z,7.07
2019-02-06T06:07:06.288Z,7.08
2019-02-06T06:07:45.253Z,7.10
2019-02-06T06:08:10.523Z,7.09
2019-02-06T06:08:41.736Z,7.06
2019-02-06T06:09:12.961Z,7.06
2019-02-06T06:09:44.159Z,7.04
2019-02-06T06:10:15.385Z,7.05
2019-02-06T06:10:47.151Z,7.06
2019-02-06T06:11:18.343Z,7.10
2019-02-06T06:11:49.635Z,7.10
2019-02-06T06:12:20.853Z,7.10
2019-02-06T06:12:52.074Z,7.11
2019-02-06T06:13:23.322Z,7.11
2019-02-06T06:13:54.572Z,7.13
2019-02-06T06:14:25.832Z,7.12
2019-02-06T06:14:57.060Z,7.12
2019-02-06T06:15:28.612Z,7.13
2019-02-06T06:15:59.827Z,7.14
2019-02-06T06:16:31.135Z,7.14
2019-02-06T06:17:02.329Z,7.14
2019-02-06T06:17:33.581Z,7.11
2019-02-06T06:18:04.806Z,7.11
2019-02-06T06:18:36.066Z,7.09
2019-02-06T06:19:07.303Z,7.08
2019-02-06T06:19:38.513Z,7.07
2019-02-06T06:20:09.725Z,7.08
2019-02-06T06:20:40.979Z,7.03
2019-02-06T06:21:12.646Z,7.07
2019-02-06T06:21:43.870Z,7.09
2019-02-06T06:22:15.136Z,7.07
2019-02-06T06:22:46.325Z,7.00
2019-02-06T06:23:17.529Z,6.96
2019-02-06T06:23:48.732Z,7.02
2019-02-06T06:24:19.977Z,7.06
2019-02-06T06:24:51.214Z,7.06
2019-02-06T06:25:22.409Z,7.11
2019-02-06T06:25:53.665Z,7.17
2019-02-06T06:26:24.867Z,7.20
2019-02-06T06:26:56.247Z,7.22
2019-02-06T06:27:27.458Z,7.22
2019-02-06T06:27:58.692Z,7.24
2019-02-06T06:28:29.891Z,7.26
2019-02-06T06:29:01.100Z,7.32
2019-02-06T06:29:32.303Z,7.39
2019-02-06T06:30:03.518Z,7.40
2019-02-06T06:30:34.729Z,7.41
2019-02-06T06:31:06.001Z,7.41
2019-02-06T06:31:37.576Z,7.42
2019-02-06T06:32:08.823Z,7.44
2019-02-06T06:32:40.071Z,7.45
2019-02-06T06:33:12.250Z,7.45
2019-02-06T06:33:43.466Z,7.44
2019-02-06T06:34:14.678Z,7.46
2019-02-06T06:34:46.003Z,7.46
2019-02-06T06:35:17.220Z,7.47
2019-02-06T06:35:48.476Z,7.44
2019-02-06T06:36:19.672Z,7.45
2019-02-06T06:36:50.942Z,7.43
2019-02-06T06:37:22.344Z,7.45
2019-02-06T06:38:01.930Z,7.45
2019-02-06T06:38:26.485Z,7.38
2019-02-06T06:38:57.743Z,7.29
2019-02-06T06:39:28.975Z,7.26
2019-02-06T06:40:00.252Z,7.27
2019-02-06T06:40:31.447Z,7.26
2019-02-06T06:41:02.644Z,7.28
2019-02-06T06:41:33.857Z,7.30
2019-02-06T06:42:05.105Z,7.31
2019-02-06T06:42:36.314Z,7.26
2019-02-06T06:43:07.712Z,7.26
2019-02-06T06:43:38.900Z,7.28
2019-02-06T06:44:10.145Z,7.27
2019-02-06T06:44:41.323Z,7.32
2019-02-06T06:45:12.604Z,7.33
2019-02-06T06:45:43.888Z,7.34
2019-02-06T06:46:15.152Z,7.35
2019-02-06T06:46:46.388Z,7.38
2019-02-06T06:47:17.618Z,7.39
2019-02-06T06:47:48.856Z,7.35
2019-02-06T06:48:20.059Z,7.35
2019-02-06T06:48:51.635Z,7.32
2019-02-06T06:49:22.898Z,7.33
2019-02-06T06:49:54.111Z,7.00
2019-02-06T06:50:25.345Z,7.28
2019-02-06T06:50:56.718Z,7.29
2019-02-06T06:51:27.928Z,7.31
2019-02-06T06:51:59.132Z,7.30
2019-02-06T06:52:30.345Z,7.30
2019-02-06T06:53:01.577Z,7.31
2019-02-06T06:53:32.768Z,7.34
2019-02-06T06:54:04.008Z,7.33
2019-02-06T06:54:35.499Z,7.29
2019-02-06T06:55:06.767Z,7.30
2019-02-06T06:55:37.975Z,7.32
2019-02-06T06:56:09.252Z,7.34
2019-02-06T06:56:40.475Z,7.38